Time;durP1;ratioP1;P1;durP2;ratioP2;P2;SDS_P1;SDS_P2;PMS_P1;PMS_P2;Temp;Humidity;BMP_temperature;BMP_pressure;BME280_temperature;BME280_humidity;BME280_pressure;Samples;Min_cycle;Max_cycle;Signal;HPM_P1;HPM_P2
2022/09/03 00:01:53;;;;;;;2.50;1.00;;;;;;;;;;6149855;23;20025;-85
2022/09/03 00:04:25;;;;;;;1.13;1.02;;;;;;;;;;6149198;23;20402;-85
2022/09/03 00:07:08;;;;;;;0.70;0.70;;;;;;;;;;6147651;23;20026;-86
2022/09/03 00:09:41;;;;;;;1.65;1.00;;;;;;;;;;6147754;23;20021;-85
2022/09/03 00:12:23;;;;;;;2.10;1.13;;;;;;;;;;6147198;23;20033;-85
2022/09/03 00:14:54;;;;;;;2.65;1.10;;;;;;;;;;6148074;23;20469;-85
2022/09/03 00:17:36;;;;;;;2.95;0.93;;;;;;;;;;6149257;23;20033;-85
2022/09/03 00:20:04;;;;;;;2.15;1.40;;;;;;;;;;6148538;23;20025;-85
2022/09/03 00:22:49;;;;;;;1.23;0.95;;;;;;;;;;6149695;23;20029;-86
2022/09/03 00:25:19;;;;;;;1.45;1.10;;;;;;;;;;6148741;23;20021;-85
2022/09/03 00:27:55;;;;;;;1.20;1.10;;;;;;;;;;6147490;23;20031;-86
2022/09/03 00:30:26;;;;;;;1.52;0.95;;;;;;;;;;6146900;23;20022;-86
2022/09/03 00:33:09;;;;;;;1.65;0.90;;;;;;;;;;6149337;23;20534;-86
2022/09/03 00:35:46;;;;;;;0.95;0.93;;;;;;;;;;6146520;23;20049;-86
2022/09/03 00:38:21;;;;;;;1.20;0.90;;;;;;;;;;6148477;23;20030;-85
2022/09/03 00:40:57;;;;;;;3.83;1.13;;;;;;;;;;6149979;23;20025;-85
2022/09/03 00:43:48;;;;;;;1.30;1.10;;;;;;;;;;6150606;23;20026;-85
2022/09/03 00:46:21;;;;;;;1.30;1.10;;;;;;;;;;6150506;23;20018;-86
2022/09/03 00:48:55;;;;;;;7.53;1.42;;;;;;;;;;6151316;23;20044;-86
2022/09/03 00:51:31;;;;;;;0.90;0.90;;;;;;;;;;6150174;23;20075;-85
2022/09/03 00:54:25;;;;;;;1.10;0.88;;;;;;;;;;6150150;23;20084;-86
2022/09/03 00:57:14;;;;;;;7.93;1.00;;;;;;;;;;6147667;23;20052;-86
2022/09/03 01:00:11;;;;;;;0.98;0.98;;;;;;;;;;6150098;23;20275;-86
2022/09/03 01:02:44;;;;;;;2.78;1.20;;;;;;;;;;6150449;23;20098;-87
2022/09/03 01:05:19;;;;;;;3.55;1.15;;;;;;;;;;6149966;23;20060;-86
2022/09/03 01:07:57;;;;;;;4.47;1.30;;;;;;;;;;6146600;23;20695;-85
2022/09/03 01:10:54;;;;;;;1.38;1.00;;;;;;;;;;6149858;23;20138;-85
2022/09/03 01:13:27;;;;;;;1.70;0.85;;;;;;;;;;6149486;23;20053;-86
2022/09/03 01:16:25;;;;;;;4.32;1.30;;;;;;;;;;6150321;23;20021;-86
2022/09/03 01:18:55;;;;;;;2.10;1.20;;;;;;;;;;6148107;23;20398;-85
2022/09/03 01:21:37;;;;;;;2.00;1.13;;;;;;;;;;6149016;23;20029;-86
2022/09/03 01:24:16;;;;;;;1.65;0.93;;;;;;;;;;6149978;23;20080;-86
2022/09/03 01:27:09;;;;;;;4.88;1.50;;;;;;;;;;6148051;23;20025;-86
2022/09/03 01:29:55;;;;;;;5.20;1.52;;;;;;;;;;6150777;23;20021;-86
2022/09/03 01:32:34;;;;;;;3.53;1.50;;;;;;;;;;6147267;23;20304;-86
2022/09/03 01:35:22;;;;;;;4.50;1.33;;;;;;;;;;6149674;23;20026;-86
2022/09/03 01:37:59;;;;;;;4.78;1.40;;;;;;;;;;6148955;23;20084;-86
2022/09/03 01:40:36;;;;;;;2.15;1.60;;;;;;;;;;6150036;23;20026;-86
2022/09/03 01:43:35;;;;;;;1.27;1.17;;;;;;;;;;6148322;23;20070;-85
2022/09/03 01:46:12;;;;;;;2.70;1.27;;;;;;;;;;6144144;23;20036;-86
2022/09/03 01:48:47;;;;;;;2.75;1.00;;;;;;;;;;6149873;23;20018;-85
2022/09/03 01:51:44;;;;;;;1.55;1.10;;;;;;;;;;6149216;23;20040;-85
2022/09/03 01:54:35;;;;;;;1.67;1.20;;;;;;;;;;6141157;23;20041;-85
2022/09/03 01:57:25;;;;;;;1.63;1.20;;;;;;;;;;6145645;23;20061;-85
2022/09/03 02:00:05;;;;;;;1.27;1.17;;;;;;;;;;6150333;23;20611;-86
2022/09/03 02:02:34;;;;;;;1.35;1.25;;;;;;;;;;6149561;23;20394;-85
2022/09/03 02:05:10;;;;;;;1.10;1.00;;;;;;;;;;6150196;23;20395;-86
2022/09/03 02:07:47;;;;;;;0.80;0.80;;;;;;;;;;6146841;23;20358;-85
2022/09/03 02:10:28;;;;;;;1.10;1.00;;;;;;;;;;6148730;23;20781;-86
2022/09/03 02:12:58;;;;;;;1.35;1.20;;;;;;;;;;6151150;23;20025;-86
2022/09/03 02:15:34;;;;;;;1.20;1.10;;;;;;;;;;6148313;23;20021;-86
2022/09/03 02:18:03;;;;;;;1.20;1.10;;;;;;;;;;6148475;23;20021;-85
2022/09/03 02:20:30;;;;;;;7.22;1.60;;;;;;;;;;6150784;23;20021;-85
2022/09/03 02:23:04;;;;;;;2.08;1.30;;;;;;;;;;6149395;23;20029;-85
2022/09/03 02:25:39;;;;;;;2.83;1.45;;;;;;;;;;6149664;23;20076;-85
2022/09/03 02:28:14;;;;;;;2.78;1.50;;;;;;;;;;6146031;23;20408;-85
2022/09/03 02:30:43;;;;;;;1.30;1.20;;;;;;;;;;6148209;23;20060;-85
2022/09/03 02:33:11;;;;;;;1.70;1.60;;;;;;;;;;6149376;23;20303;-85
2022/09/03 02:35:45;;;;;;;1.73;1.40;;;;;;;;;;6149392;23;20470;-85
2022/09/03 02:38:15;;;;;;;2.38;1.42;;;;;;;;;;6148332;23;20088;-85
2022/09/03 02:40:43;;;;;;;2.85;1.50;;;;;;;;;;6147975;23;20025;-85
2022/09/03 02:43:19;;;;;;;3.38;1.30;;;;;;;;;;6148253;23;20026;-85
2022/09/03 02:45:53;;;;;;;3.88;1.30;;;;;;;;;;6148902;23;20021;-84
2022/09/03 02:48:28;;;;;;;2.53;1.00;;;;;;;;;;6148427;23;20125;-85
2022/09/03 02:50:55;;;;;;;2.58;1.48;;;;;;;;;;6150005;23;20021;-84
2022/09/03 02:53:22;;;;;;;2.17;1.42;;;;;;;;;;6148775;23;20029;-85
2022/09/03 02:55:59;;;;;;;3.55;1.70;;;;;;;;;;6149341;23;20021;-86
2022/09/03 02:58:40;;;;;;;2.13;1.50;;;;;;;;;;6147198;23;20033;-85
2022/09/03 03:01:14;;;;;;;1.95;1.75;;;;;;;;;;6149057;23;20026;-85
2022/09/03 03:03:50;;;;;;;1.77;1.67;;;;;;;;;;6149449;23;20459;-85
2022/09/03 03:06:24;;;;;;;1.65;1.55;;;;;;;;;;6147181;23;20080;-85
2022/09/03 03:08:54;;;;;;;1.13;1.02;;;;;;;;;;6148549;23;20088;-85
2022/09/03 03:11:21;;;;;;;2.38;1.55;;;;;;;;;;6149339;23;20053;-85
2022/09/03 03:13:56;;;;;;;1.40;1.30;;;;;;;;;;6151180;23;20084;-85
2022/09/03 03:16:23;;;;;;;1.58;1.30;;;;;;;;;;6149720;23;20022;-85
2022/09/03 03:18:51;;;;;;;3.35;1.30;;;;;;;;;;6148776;23;20125;-86
2022/09/03 03:21:25;;;;;;;3.58;1.55;;;;;;;;;;6148745;23;20053;-86
2022/09/03 03:23:52;;;;;;;3.00;2.00;;;;;;;;;;6148565;23;20319;-86
2022/09/03 03:26:20;;;;;;;1.90;1.67;;;;;;;;;;6147884;23;20021;-86
2022/09/03 03:28:58;;;;;;;1.95;1.42;;;;;;;;;;6149455;23;20320;-86
2022/09/03 03:31:26;;;;;;;3.28;1.80;;;;;;;;;;6147407;23;20029;-85
2022/09/03 03:34:00;;;;;;;2.85;1.80;;;;;;;;;;6149357;23;20026;-85
2022/09/03 03:36:35;;;;;;;1.85;1.75;;;;;;;;;;6148259;23;20025;-85
2022/09/03 03:39:02;;;;;;;1.42;1.25;;;;;;;;;;6148171;23;20474;-84
2022/09/03 03:41:30;;;;;;;3.25;1.35;;;;;;;;;;6172505;23;20033;-85
2022/09/03 03:44:06;;;;;;;1.38;1.27;;;;;;;;;;6148706;23;20029;-85
2022/09/03 03:46:35;;;;;;;2.10;1.27;;;;;;;;;;6148433;23;20025;-85
2022/09/03 03:49:02;;;;;;;1.95;1.50;;;;;;;;;;6148711;23;20026;-84
2022/09/03 03:51:36;;;;;;;1.98;1.48;;;;;;;;;;6147302;23;20021;-85
2022/09/03 03:54:04;;;;;;;2.03;1.50;;;;;;;;;;6146145;23;20493;-85
2022/09/03 03:56:32;;;;;;;2.67;1.40;;;;;;;;;;6146355;23;20025;-85
2022/09/03 03:59:13;;;;;;;2.03;1.52;;;;;;;;;;6147853;23;20084;-83
2022/09/03 04:01:40;;;;;;;2.00;1.77;;;;;;;;;;6145238;23;20398;-84
2022/09/03 04:04:14;;;;;;;1.65;1.50;;;;;;;;;;6148629;23;20021;-84
2022/09/03 04:06:42;;;;;;;1.90;1.70;;;;;;;;;;6148198;23;20025;-84
2022/09/03 04:09:09;;;;;;;7.03;1.80;;;;;;;;;;6147569;23;20029;-84
2022/09/03 04:11:43;;;;;;;3.50;2.03;;;;;;;;;;6148059;23;20041;-84
2022/09/03 04:14:10;;;;;;;2.65;1.80;;;;;;;;;;6148951;23;20025;-85
2022/09/03 04:16:37;;;;;;;1.92;1.60;;;;;;;;;;6147914;23;20021;-85
2022/09/03 04:19:11;;;;;;;2.15;1.70;;;;;;;;;;6149115;23;20422;-84
2022/09/03 04:21:38;;;;;;;4.63;1.75;;;;;;;;;;6149211;23;20026;-85
2022/09/03 04:24:05;;;;;;;;;;;;;;;;;;6149009;23;20022;-84
2022/09/03 04:26:39;;;;;;;3.75;1.50;;;;;;;;;;6149250;23;19920;-84
2022/09/03 04:29:09;;;;;;;5.93;1.52;;;;;;;;;;6149920;23;20017;-84
2022/09/03 04:31:37;;;;;;;1.30;1.20;;;;;;;;;;6149425;23;20076;-85
2022/09/03 04:34:12;;;;;;;2.88;1.38;;;;;;;;;;6147938;23;20053;-84
2022/09/03 04:36:39;;;;;;;2.30;1.60;;;;;;;;;;6148862;23;20034;-85
2022/09/03 04:39:06;;;;;;;1.70;1.52;;;;;;;;;;6146992;23;20351;-85
2022/09/03 04:41:40;;;;;;;1.70;1.45;;;;;;;;;;6148320;23;20411;-84
2022/09/03 04:44:07;;;;;;;1.50;1.40;;;;;;;;;;6146486;23;20087;-84
2022/09/03 04:46:34;;;;;;;2.42;1.80;;;;;;;;;;6147710;23;20021;-84
2022/09/03 04:49:09;;;;;;;1.95;1.70;;;;;;;;;;6147918;23;20092;-84
2022/09/03 04:51:37;;;;;;;;;;;;;;;;;;6149972;23;20395;-85
2022/09/03 04:54:04;;;;;;;2.30;1.83;;;;;;;;;;6146934;23;19968;-84
2022/09/03 04:56:39;;;;;;;2.72;1.73;;;;;;;;;;6149363;23;20028;-85
2022/09/03 04:59:14;;;;;;;1.60;1.50;;;;;;;;;;6145415;23;20065;-84
2022/09/03 05:01:51;;;;;;;4.63;1.50;;;;;;;;;;6148834;23;20033;-83
2022/09/03 05:04:18;;;;;;;1.48;1.38;;;;;;;;;;6149353;23;20502;-84
2022/09/03 05:06:45;;;;;;;1.55;1.45;;;;;;;;;;6149934;23;20471;-83
2022/09/03 05:09:20;;;;;;;3.63;1.30;;;;;;;;;;6149132;23;20053;-84
2022/09/03 05:11:47;;;;;;;1.77;1.50;;;;;;;;;;6148191;23;20036;-83
2022/09/03 05:14:14;;;;;;;4.78;1.70;;;;;;;;;;6149897;23;20026;-84
2022/09/03 05:16:49;;;;;;;2.08;1.45;;;;;;;;;;6148318;23;20029;-84
2022/09/03 05:19:33;;;;;;;1.83;1.40;;;;;;;;;;6148900;23;20417;-83
2022/09/03 05:22:07;;;;;;;1.88;1.67;;;;;;;;;;6147286;23;20662;-84
2022/09/03 05:24:34;;;;;;;4.32;1.58;;;;;;;;;;6146522;23;20216;-84
2022/09/03 05:27:01;;;;;;;1.80;1.50;;;;;;;;;;6148614;23;20347;-84
2022/09/03 05:29:36;;;;;;;1.42;1.20;;;;;;;;;;6150553;23;20048;-84
2022/09/03 05:32:03;;;;;;;1.30;1.20;;;;;;;;;;6150737;23;20025;-84
2022/09/03 05:34:31;;;;;;;1.25;1.15;;;;;;;;;;6148698;23;20161;-84
2022/09/03 05:37:05;;;;;;;2.40;1.42;;;;;;;;;;6148529;23;20029;-84
2022/09/03 05:39:32;;;;;;;1.58;1.48;;;;;;;;;;6150620;23;20026;-84
2022/09/03 05:41:59;;;;;;;4.18;1.40;;;;;;;;;;6152422;23;20030;-84
2022/09/03 05:44:35;;;;;;;4.15;1.60;;;;;;;;;;6150217;23;20028;-84
2022/09/03 05:47:02;;;;;;;3.10;1.40;;;;;;;;;;6150675;23;20025;-84
2022/09/03 05:49:30;;;;;;;;;;;;;;;;;;6150261;23;20388;-84
2022/09/03 05:52:05;;;;;;;2.15;1.55;;;;;;;;;;6148658;23;19916;-84
2022/09/03 05:54:32;;;;;;;1.80;1.42;;;;;;;;;;6150452;23;20028;-83
2022/09/03 05:56:59;;;;;;;1.73;1.23;;;;;;;;;;6148583;23;20816;-82
2022/09/03 05:59:40;;;;;;;3.42;1.60;;;;;;;;;;6149463;23;20088;-84
2022/09/03 06:02:07;;;;;;;2.13;1.50;;;;;;;;;;6149619;23;20025;-84
2022/09/03 06:04:45;;;;;;;2.05;1.80;;;;;;;;;;6149802;23;20021;-85
2022/09/03 06:07:13;;;;;;;3.40;1.77;;;;;;;;;;6149510;23;20063;-84
2022/09/03 06:09:40;;;;;;;2.08;1.50;;;;;;;;;;6149287;23;20041;-85
2022/09/03 06:12:15;;;;;;;4.85;1.60;;;;;;;;;;6150205;23;20355;-84
2022/09/03 06:14:42;;;;;;;1.70;1.60;;;;;;;;;;6149744;23;20057;-85
2022/09/03 06:17:11;;;;;;;2.67;1.40;;;;;;;;;;6148835;23;20052;-85
2022/09/03 06:19:45;;;;;;;2.95;1.40;;;;;;;;;;6150292;23;20072;-84
2022/09/03 06:22:12;;;;;;;1.50;1.33;;;;;;;;;;6149261;23;20137;-86
2022/09/03 06:24:39;;;;;;;3.53;1.60;;;;;;;;;;6148256;23;20746;-85
2022/09/03 06:27:13;;;;;;;5.20;1.45;;;;;;;;;;6150382;23;20026;-86
2022/09/03 06:29:40;;;;;;;3.15;1.70;;;;;;;;;;6148255;23;20029;-86
2022/09/03 06:32:08;;;;;;;1.60;1.50;;;;;;;;;;6148190;23;20182;-85
2022/09/03 06:34:42;;;;;;;1.40;1.30;;;;;;;;;;6149185;23;20048;-86
2022/09/03 06:37:09;;;;;;;2.95;1.80;;;;;;;;;;6150424;23;20032;-85
2022/09/03 06:39:36;;;;;;;1.52;1.40;;;;;;;;;;6151325;23;20072;-85
2022/09/03 06:42:11;;;;;;;3.05;1.50;;;;;;;;;;6149271;23;20471;-85
2022/09/03 06:44:38;;;;;;;3.72;1.63;;;;;;;;;;6150177;23;20053;-86
2022/09/03 06:47:05;;;;;;;1.83;1.42;;;;;;;;;;6151688;23;20026;-85
2022/09/03 06:49:39;;;;;;;3.85;1.70;;;;;;;;;;6151031;23;20025;-86
2022/09/03 06:52:06;;;;;;;3.97;1.35;;;;;;;;;;6150419;23;20025;-86
2022/09/03 06:54:34;;;;;;;1.25;1.02;;;;;;;;;;6150736;23;20076;-85
2022/09/03 06:57:14;;;;;;;1.33;1.23;;;;;;;;;;6144397;23;20051;-86
2022/09/03 06:59:48;;;;;;;2.38;1.13;;;;;;;;;;6149869;23;20030;-86
2022/09/03 07:02:22;;;;;;;1.90;1.30;;;;;;;;;;6147941;23;20419;-86
2022/09/03 07:04:49;;;;;;;1.10;0.95;;;;;;;;;;6150251;23;20076;-86
2022/09/03 07:07:17;;;;;;;2.20;1.10;;;;;;;;;;6147985;23;20355;-86
2022/09/03 07:09:51;;;;;;;3.05;0.98;;;;;;;;;;6149067;23;20029;-86
2022/09/03 07:12:19;;;;;;;1.85;1.30;;;;;;;;;;6149159;23;20411;-85
2022/09/03 07:14:46;;;;;;;2.00;1.05;;;;;;;;;;6150918;23;20104;-86
2022/09/03 07:17:21;;;;;;;1.73;1.00;;;;;;;;;;6149551;23;20414;-85
2022/09/03 07:19:48;;;;;;;3.00;1.58;;;;;;;;;;6149920;23;20036;-85
2022/09/03 07:22:15;;;;;;;0.73;0.73;;;;;;;;;;6148537;23;20025;-86
2022/09/03 07:24:57;;;;;;;1.02;0.80;;;;;;;;;;6149237;23;20056;-85
2022/09/03 07:27:25;;;;;;;4.75;1.13;;;;;;;;;;6150036;23;20029;-85
2022/09/03 07:29:59;;;;;;;1.75;0.90;;;;;;;;;;6151925;23;20092;-85
2022/09/03 07:32:26;;;;;;;3.45;0.95;;;;;;;;;;6150524;23;20037;-85
2022/09/03 07:34:53;;;;;;;1.60;0.85;;;;;;;;;;6150947;23;20045;-86
2022/09/03 07:37:28;;;;;;;1.02;0.93;;;;;;;;;;6148539;23;20029;-85
2022/09/03 07:39:55;;;;;;;4.22;0.75;;;;;;;;;;6149522;23;20032;-85
2022/09/03 07:42:22;;;;;;;1.83;0.75;;;;;;;;;;6150267;23;20097;-85
2022/09/03 07:44:57;;;;;;;3.00;0.90;;;;;;;;;;6150037;23;20455;-85
2022/09/03 07:47:25;;;;;;;2.20;0.60;;;;;;;;;;6150038;23;20096;-85
2022/09/03 07:49:53;;;;;;;1.95;0.70;;;;;;;;;;6150716;23;20022;-86
2022/09/03 07:52:27;;;;;;;0.73;0.60;;;;;;;;;;6150490;23;20088;-86
2022/09/03 07:54:54;;;;;;;3.25;0.75;;;;;;;;;;6147242;23;20028;-86
2022/09/03 07:57:35;;;;;;;1.33;0.68;;;;;;;;;;6146955;23;20037;-85
2022/09/03 08:00:16;;;;;;;1.90;0.70;;;;;;;;;;6150746;23;20407;-85
2022/09/03 08:02:44;;;;;;;2.33;0.80;;;;;;;;;;6148739;23;20025;-84
2022/09/03 08:05:22;;;;;;;4.28;0.98;;;;;;;;;;6149532;23;20478;-83
2022/09/03 08:07:49;;;;;;;1.15;0.77;;;;;;;;;;6146764;23;20029;-84
2022/09/03 08:10:17;;;;;;;;;;;;;;;;;;6150163;23;20410;-87
2022/09/03 08:12:51;;;;;;;2.85;1.05;;;;;;;;;;6150385;23;19925;-86
2022/09/03 08:15:18;;;;;;;3.80;0.82;;;;;;;;;;6149973;23;20025;-86
2022/09/03 08:17:45;;;;;;;0.68;0.50;;;;;;;;;;6150308;23;20029;-83
2022/09/03 08:20:19;;;;;;;2.25;0.63;;;;;;;;;;6151139;23;20026;-83
2022/09/03 08:22:47;;;;;;;1.45;0.60;;;;;;;;;;6149909;23;20029;-83
2022/09/03 08:25:15;;;;;;;2.05;1.00;;;;;;;;;;6150169;23;20021;-85
2022/09/03 08:27:50;;;;;;;1.27;0.80;;;;;;;;;;6148315;23;20025;-84
2022/09/03 08:30:17;;;;;;;3.08;0.80;;;;;;;;;;6150271;23;20022;-85
2022/09/03 08:32:44;;;;;;;3.00;0.90;;;;;;;;;;6149958;23;20394;-84
2022/09/03 08:35:20;;;;;;;1.77;0.60;;;;;;;;;;6146584;23;20076;-84
2022/09/03 08:37:50;;;;;;;2.75;0.80;;;;;;;;;;6148515;23;20025;-86
2022/09/03 08:40:23;;;;;;;2.47;0.70;;;;;;;;;;6150626;23;20025;-85
2022/09/03 08:43:12;;;;;;;3.38;1.40;;;;;;;;;;6149702;23;20087;-84
2022/09/03 08:45:39;;;;;;;1.65;0.70;;;;;;;;;;6150044;23;20033;-82
2022/09/03 08:48:17;;;;;;;2.03;1.13;;;;;;;;;;6149486;23;20351;-81
2022/09/03 08:50:58;;;;;;;1.90;0.60;;;;;;;;;;6150752;23;20078;-82
2022/09/03 08:53:41;;;;;;;1.63;0.85;;;;;;;;;;6151385;23;20100;-82
2022/09/03 08:56:13;;;;;;;1.45;0.65;;;;;;;;;;6150382;23;20026;-82
2022/09/03 08:59:00;;;;;;;1.75;0.80;;;;;;;;;;6148522;23;20022;-84
2022/09/03 09:01:34;;;;;;;1.75;0.82;;;;;;;;;;6152610;23;20028;-84
2022/09/03 09:04:29;;;;;;;1.52;0.60;;;;;;;;;;6150082;23;20414;-84
2022/09/03 09:07:06;;;;;;;2.53;0.60;;;;;;;;;;6150007;23;20080;-85
2022/09/03 09:09:40;;;;;;;1.17;0.50;;;;;;;;;;6152247;23;20021;-86
2022/09/03 09:12:10;;;;;;;0.98;0.57;;;;;;;;;;6152195;23;20470;-85
2022/09/03 09:14:48;;;;;;;1.17;0.55;;;;;;;;;;6152073;23;20442;-82
2022/09/03 09:17:31;;;;;;;3.08;0.80;;;;;;;;;;6152442;23;20022;-81
2022/09/03 09:19:58;;;;;;;0.93;0.60;;;;;;;;;;6151854;23;20068;-83
2022/09/03 09:22:38;;;;;;;2.20;1.05;;;;;;;;;;6151507;23;20485;-82
2022/09/03 09:25:13;;;;;;;1.40;0.93;;;;;;;;;;6151685;23;20067;-81
2022/09/03 09:27:59;;;;;;;1.30;0.60;;;;;;;;;;6151916;23;20083;-82
2022/09/03 09:30:28;;;;;;;0.90;0.63;;;;;;;;;;6152575;23;20048;-81
2022/09/03 09:33:06;;;;;;;2.05;0.77;;;;;;;;;;6150957;23;20029;-84
2022/09/03 09:35:33;;;;;;;1.52;0.80;;;;;;;;;;6148080;23;20025;-83
2022/09/03 09:38:00;;;;;;;1.33;0.70;;;;;;;;;;6150730;23;20486;-83
2022/09/03 12:07:37;;;;;;;1.90;0.80;;;;;;;;;;5880111;22;8345542;-47
2022/09/03 12:10:19;;;;;;;1.45;0.77;;;;;;;;;;6204148;23;20056;-46
2022/09/03 12:15:50;;;;;;;1.52;0.85;;;;;;;;;;6201465;23;20035;-49
2022/09/03 12:18:31;;;;;;;1.05;0.77;;;;;;;;;;6206087;23;20056;-75
2022/09/03 12:20:59;;;;;;;2.05;0.82;;;;;;;;;;6208159;23;20031;-75
2022/09/03 12:23:43;;;;;;;0.57;0.50;;;;;;;;;;6207704;23;20074;-74
2022/09/03 12:26:18;;;;;;;0.90;0.70;;;;;;;;;;6209962;23;20098;-72
2022/09/03 12:28:56;;;;;;;1.33;0.82;;;;;;;;;;6208319;23;20528;-71
2022/09/03 12:31:28;;;;;;;1.60;0.93;;;;;;;;;;6208085;23;20548;-73
2022/09/03 12:34:12;;;;;;;1.70;0.80;;;;;;;;;;6209563;23;20025;-45
2022/09/03 12:36:43;;;;;;;1.42;0.80;;;;;;;;;;6209411;23;20044;-72
2022/09/03 12:39:18;;;;;;;0.95;0.85;;;;;;;;;;6208796;23;20028;-72
2022/09/03 12:42:08;;;;;;;3.50;2.42;;;;;;;;;;6208571;23;20141;-72
2022/09/03 12:44:41;;;;;;;2.83;1.52;;;;;;;;;;6208715;23;20025;-73
2022/09/03 12:47:08;;;;;;;2.60;0.70;;;;;;;;;;6209042;23;20025;-73
2022/09/03 12:50:06;;;;;;;1.75;1.00;;;;;;;;;;6207782;23;20552;-73
2022/09/03 12:52:42;;;;;;;0.70;0.55;;;;;;;;;;6208661;23;20094;-54
2022/09/03 12:55:18;;;;;;;1.42;0.77;;;;;;;;;;6209266;23;20353;-52
2022/09/03 12:58:06;;;;;;;0.80;0.80;;;;;;;;;;6208690;23;20279;-52
2022/09/03 13:00:45;;;;;;;1.20;0.80;;;;;;;;;;6207258;23;20476;-53
2022/09/03 13:03:23;;;;;;;2.47;0.85;;;;;;;;;;6188629;23;20432;-55
2022/09/03 13:06:07;;;;;;;1.65;0.80;;;;;;;;;;6178528;23;20032;-51
2022/09/03 13:09:07;;;;;;;2.60;0.50;;;;;;;;;;6148938;23;20029;-51
2022/09/03 13:11:38;;;;;;;2.83;0.88;;;;;;;;;;6147340;23;20025;-58
2022/09/03 13:14:13;;;;;;;1.83;1.00;;;;;;;;;;6122436;23;20026;-57
2022/09/03 13:16:43;;;;;;;0.98;0.82;;;;;;;;;;6146703;23;20025;-56
2022/09/03 13:19:29;;;;;;;2.13;0.90;;;;;;;;;;6146108;23;20467;-56
2022/09/03 13:22:22;;;;;;;1.25;1.00;;;;;;;;;;6146036;23;20097;-55
2022/09/03 13:24:49;;;;;;;0.80;0.80;;;;;;;;;;6148987;23;20134;-57
2022/09/03 13:27:53;;;;;;;1.63;0.90;;;;;;;;;;6147547;23;20030;-55
2022/09/03 13:30:22;;;;;;;1.83;1.05;;;;;;;;;;6017735;23;20076;-48
2022/09/03 13:33:07;;;;;;;2.15;0.80;;;;;;;;;;6148464;23;20073;-53
2022/09/03 13:35:49;;;;;;;1.27;0.82;;;;;;;;;;6147485;23;20037;-56
2022/09/03 13:38:35;;;;;;;2.05;0.82;;;;;;;;;;6147776;23;20455;-54
2022/09/03 13:41:19;;;;;;;0.60;0.60;;;;;;;;;;6148052;23;20017;-52
2022/09/03 13:43:58;;;;;;;2.63;0.90;;;;;;;;;;6147261;23;20025;-55
2022/09/03 13:46:30;;;;;;;0.93;0.88;;;;;;;;;;6147321;23;20033;-55
2022/09/03 13:52:06;;;;;;;1.60;0.80;;;;;;;;;;6148244;23;20107;-57
2022/09/03 13:54:47;;;;;;;2.90;0.60;;;;;;;;;;6148495;23;20018;-58
2022/09/03 13:57:26;;;;;;;1.55;0.70;;;;;;;;;;6147850;23;20033;-59
2022/09/03 14:00:06;;;;;;;2.17;0.98;;;;;;;;;;6147726;23;20029;-58
2022/09/03 14:02:39;;;;;;;0.65;0.60;;;;;;;;;;6148384;23;20026;-59
2022/09/03 14:05:34;;;;;;;2.10;0.43;;;;;;;;;;6146003;23;20036;-58
2022/09/03 14:08:12;;;;;;;1.15;0.77;;;;;;;;;;6082570;23;20025;-62
2022/09/03 14:10:59;;;;;;;0.73;0.70;;;;;;;;;;6148641;23;20026;-54
2022/09/03 14:13:32;;;;;;;2.28;0.93;;;;;;;;;;6147163;23;20053;-54
2022/09/03 14:16:09;;;;;;;0.90;0.70;;;;;;;;;;6147583;23;20033;-52
2022/09/03 14:18:51;;;;;;;0.93;0.75;;;;;;;;;;6147761;23;20026;-53
2022/09/03 14:21:28;;;;;;;1.98;0.70;;;;;;;;;;6147394;23;20529;-55
2022/09/03 14:23:59;;;;;;;1.67;0.80;;;;;;;;;;6149077;23;20106;-50
2022/09/03 14:26:34;;;;;;;2.03;1.20;;;;;;;;;;6147688;23;20032;-56
2022/09/03 14:29:13;;;;;;;1.38;0.90;;;;;;;;;;6122049;23;20025;-48
2022/09/03 14:31:50;;;;;;;0.90;0.80;;;;;;;;;;6148174;23;20030;-70
2022/09/03 14:34:26;;;;;;;1.27;0.90;;;;;;;;;;6147990;23;20022;-68
2022/09/03 14:37:19;;;;;;;0.95;0.77;;;;;;;;;;6147527;23;20474;-70
2022/09/03 14:39:59;;;;;;;3.65;0.95;;;;;;;;;;6148212;23;20022;-71
2022/09/03 14:42:39;;;;;;;0.90;0.75;;;;;;;;;;6149233;23;20029;-70
2022/09/03 14:45:30;;;;;;;2.30;0.63;;;;;;;;;;6146479;23;20072;-52
2022/09/03 14:48:06;;;;;;;0.75;0.65;;;;;;;;;;6099885;23;20026;-54
2022/09/03 14:50:52;;;;;;;1.98;0.98;;;;;;;;;;6146688;23;20025;-48
2022/09/03 14:53:37;;;;;;;1.08;0.90;;;;;;;;;;6146854;23;20025;-48
2022/09/03 14:56:22;;;;;;;0.73;0.70;;;;;;;;;;6146244;23;20344;-47
2022/09/03 14:59:14;;;;;;;0.95;0.63;;;;;;;;;;6147525;23;20025;-48
2022/09/03 15:01:43;;;;;;;3.00;0.82;;;;;;;;;;6148757;23;20053;-46
2022/09/03 15:04:25;;;;;;;0.80;0.80;;;;;;;;;;6148662;23;20025;-63
2022/09/03 15:07:16;;;;;;;1.67;1.00;;;;;;;;;;6156536;23;20065;-64
2022/09/03 15:10:09;;;;;;;1.10;0.85;;;;;;;;;;6179230;23;20466;-62
2022/09/03 15:12:36;;;;;;;1.00;0.90;;;;;;;;;;6181229;23;20021;-64
2022/09/03 15:15:32;;;;;;;1.02;0.70;;;;;;;;;;6180309;23;20025;-63
2022/09/03 15:18:03;;;;;;;1.90;1.00;;;;;;;;;;6180828;23;20467;-62
2022/09/03 15:20:56;;;;;;;1.58;0.70;;;;;;;;;;6180279;23;20346;-63
2022/09/03 15:23:28;;;;;;;2.17;0.60;;;;;;;;;;6179563;23;20025;-57
2022/09/03 15:26:15;;;;;;;1.05;0.88;;;;;;;;;;6180104;23;20493;-64
2022/09/03 15:29:14;;;;;;;1.52;0.95;;;;;;;;;;6179512;23;20025;-59
2022/09/03 15:31:51;;;;;;;1.52;0.73;;;;;;;;;;6107530;23;20028;-58
2022/09/03 15:34:21;;;;;;;1.40;0.60;;;;;;;;;;6180072;23;20021;-58
2022/09/03 15:36:57;;;;;;;2.28;0.80;;;;;;;;;;6179651;23;20025;-58
2022/09/03 15:39:31;;;;;;;1.90;0.50;;;;;;;;;;6154935;23;20028;-59
2022/09/03 15:42:18;;;;;;;1.05;0.60;;;;;;;;;;6181260;23;20027;-59
2022/09/03 15:44:51;;;;;;;0.77;0.70;;;;;;;;;;6180505;23;20029;-60
2022/09/03 15:47:37;;;;;;;1.58;0.68;;;;;;;;;;6180347;23;20029;-62
2022/09/03 15:50:37;;;;;;;1.95;1.17;;;;;;;;;;6179404;23;20021;-61
2022/09/03 15:53:15;;;;;;;2.42;1.13;;;;;;;;;;6181772;23;20100;-63
2022/09/03 15:55:43;;;;;;;0.60;0.52;;;;;;;;;;6179149;23;20025;-62
2022/09/03 15:58:17;;;;;;;;;;;;;;;;;;6179779;23;20091;-63
2022/09/03 16:01:02;;;;;;;1.08;0.95;;;;;;;;;;6180446;23;19920;-63
2022/09/03 16:03:50;;;;;;;1.33;1.10;;;;;;;;;;6180549;23;20021;-70
2022/09/03 16:06:38;;;;;;;;;;;;;;;;;;6118276;23;20403;-45
2022/09/03 16:09:38;;;;;;;2.58;1.90;;;;;;;;;;6180183;23;20338;-44
2022/09/03 16:12:40;;;;;;;1.73;0.88;;;;;;;;;;6179322;23;20104;-48
2022/09/03 16:15:17;;;;;;;3.25;1.10;;;;;;;;;;6180449;23;20052;-44
2022/09/03 16:17:58;;;;;;;3.05;0.90;;;;;;;;;;6179691;23;20036;-49
2022/09/03 16:20:31;;;;;;;1.63;0.80;;;;;;;;;;6178600;23;20032;-49
2022/09/03 16:23:12;;;;;;;1.02;0.73;;;;;;;;;;6178561;23;20470;-55
2022/09/03 16:25:55;;;;;;;1.25;0.95;;;;;;;;;;6179553;23;20673;-53
2022/09/03 16:28:37;;;;;;;2.88;0.77;;;;;;;;;;6180303;23;20056;-55
2022/09/03 16:31:07;;;;;;;0.98;0.93;;;;;;;;;;6180549;23;20025;-58
2022/09/03 16:33:46;;;;;;;0.75;0.70;;;;;;;;;;6180640;23;20043;-58
2022/09/03 16:36:35;;;;;;;1.25;1.15;;;;;;;;;;6153188;23;20064;-58
2022/09/03 16:39:20;;;;;;;1.40;1.10;;;;;;;;;;6178013;23;20029;-71
2022/09/03 16:41:58;;;;;;;1.60;1.05;;;;;;;;;;6180678;23;20027;-54
2022/09/03 16:44:44;;;;;;;1.10;1.00;;;;;;;;;;6180131;23;20512;-58
2022/09/03 16:47:24;;;;;;;5.10;1.17;;;;;;;;;;6178290;23;20025;-58
2022/09/03 16:50:16;;;;;;;1.30;0.90;;;;;;;;;;6176163;23;20029;-55
2022/09/03 16:53:01;;;;;;;1.77;1.00;;;;;;;;;;6175762;23;20025;-56
2022/09/03 16:55:43;;;;;;;2.05;0.98;;;;;;;;;;6173969;23;20091;-57
2022/09/03 16:58:10;;;;;;;1.77;0.88;;;;;;;;;;6174068;23;20029;-59
2022/09/03 17:01:03;;;;;;;1.00;0.80;;;;;;;;;;6175828;23;20044;-65
2022/09/03 17:03:39;;;;;;;2.03;0.93;;;;;;;;;;6179366;23;20423;-58
2022/09/03 17:06:34;;;;;;;1.77;1.08;;;;;;;;;;6179813;23;20083;-60
2022/09/03 17:09:11;;;;;;;1.17;0.90;;;;;;;;;;6175995;23;20091;-61
2022/09/03 17:11:50;;;;;;;3.70;1.10;;;;;;;;;;6175371;23;20049;-60
2022/09/03 17:14:35;;;;;;;3.72;0.85;;;;;;;;;;6175142;23;20071;-60
2022/09/03 17:17:25;;;;;;;1.08;1.00;;;;;;;;;;6178029;23;20584;-50
2022/09/03 17:19:52;;;;;;;3.70;1.20;;;;;;;;;;6177346;23;20106;-65
2022/09/03 17:22:25;;;;;;;5.35;1.50;;;;;;;;;;6178879;23;20025;-45
2022/09/03 17:25:04;;;;;;;3.33;1.38;;;;;;;;;;6178559;23;20052;-48
2022/09/03 17:27:47;;;;;;;1.77;1.08;;;;;;;;;;6179717;23;20025;-50
2022/09/03 17:30:17;;;;;;;2.15;1.20;;;;;;;;;;6178798;23;20025;-49
2022/09/03 17:33:03;;;;;;;1.55;1.15;;;;;;;;;;6154698;23;20044;-47
2022/09/03 17:35:38;;;;;;;1.67;0.95;;;;;;;;;;6177592;23;20025;-48
2022/09/03 17:38:21;;;;;;;1.70;1.30;;;;;;;;;;6180338;23;20071;-47
2022/09/03 17:40:48;;;;;;;3.55;1.00;;;;;;;;;;6171788;23;20025;-51
2022/09/03 17:43:23;;;;;;;3.40;1.20;;;;;;;;;;6178505;23;20029;-49
2022/09/03 17:45:50;;;;;;;;;;;;;;;;;;6170934;23;20083;-47
2022/09/03 17:48:25;;;;;;;1.73;1.15;;;;;;;;;;6177810;23;19986;-46
2022/09/03 17:51:04;;;;;;;2.35;1.52;;;;;;;;;;6175305;23;20403;-51
2022/09/03 17:53:58;;;;;;;1.13;1.02;;;;;;;;;;6177309;23;20537;-50
2022/09/03 17:56:31;;;;;;;2.38;1.05;;;;;;;;;;6171327;23;20606;-70
2022/09/03 17:59:19;;;;;;;4.90;1.35;;;;;;;;;;6148544;23;20021;-44
2022/09/03 18:02:05;;;;;;;1.50;1.10;;;;;;;;;;6172636;23;20084;-52
2022/09/03 18:04:33;;;;;;;5.18;1.50;;;;;;;;;;6168465;23;20104;-54
2022/09/03 18:07:17;;;;;;;2.63;1.33;;;;;;;;;;6171874;23;20025;-56
2022/09/03 18:10:17;;;;;;;1.58;1.30;;;;;;;;;;6169174;23;20052;-55
2022/09/03 18:12:54;;;;;;;3.10;1.52;;;;;;;;;;6174701;23;20094;-56